Oostwold Airport

EHOW · Groningen, Holandia

6 października 2022

Czas Kod Pogoda Temp. Widoczność Sufit Wiatr METAR/SPECI
21:20
L
11 °C 0 m - Var Var 3 kt METAR ETWM 061920Z AUTO VRB03KT //// // ////// 11/07 Q1028 ///
20:20
L
12 °C 0 m - 200° 200° 3 kt METAR ETWM 061820Z AUTO 20003KT //// // ////// 12/08 Q1028 ///
19:20
L
13 °C 0 m - Var Var 3 kt METAR ETWM 061720Z AUTO VRB03KT //// // ////// 13/08 Q1028 ///
18:20
L
15 °C 0 m - 220° 220° 4 kt METAR ETWM 061620Z AUTO 22004KT //// // ////// 15/07 Q1028 ///
17:20
L
16 °C 0 m - 230° 230° 7 kt METAR ETWM 061520Z AUTO 23007KT //// // ////// 16/07 Q1028 ///
16:20
L
17 °C 0 m - 220° 220° 9 kt METAR ETWM 061420Z AUTO 22009KT //// // ////// 17/06 Q1028 ///
15:20
L
17 °C 0 m - 240° 240° 7 kt METAR ETWM 061320Z AUTO 24007KT //// // ////// 17/07 Q1028 ///
14:20
V
16 °C 10 km+ - 240° 240° 9 kt METAR ETWM 061220Z 24009KT 9999 FEW037 16/07 Q1028 BLU+
13:20
V
16 °C 10 km+ - 240° 240° 9 - 20 kt METAR ETWM 061120Z 24009G20KT 9999 FEW034 16/07 Q1028 BLU+
12:20
V
15 °C 10 km+ - 230° 230° 10 kt METAR ETWM 061020Z 23010KT 9999 FEW028 15/08 Q1027 BLU+
11:20
V
15 °C 10 km+ - 240° 240° 10 - 21 kt METAR ETWM 060920Z 24010G21KT 9999 FEW022 15/08 Q1027 BLU+
10:20
V
14 °C 10 km+ - 230° 230° 8 - 18 kt METAR ETWM 060820Z 23008G18KT 9999 FEW240 14/08 Q1026 BLU+
09:20
V
12 °C 10 km+ - 230° 230° 8 kt METAR ETWM 060720Z 23008KT 9999 FEW240 12/08 Q1025 BLU+
08:20
V
11 °C 10 km+ - 220° 220° 6 kt METAR ETWM 060620Z 22006KT 9999 FEW025 11/08 Q1024 BLU+
07:20
V
11 °C 10 km+ - 230° 230° 7 - 17 kt METAR ETWM 060520Z 23007G17KT 9999 FEW025 11/08 Q1023 BLU+
06:20
V
12 °C 10 km+ - 230° 230° 6 kt METAR ETWM 060420Z 23006KT 9999 FEW025 12/08 Q1022 BLU+
05:20
L
12 °C 0 m - 240° 240° 8 kt METAR ETWM 060320Z AUTO 24008KT //// // ////// 12/09 Q1021 ///
04:20
L
12 °C 0 m - 220° 220° 6 kt METAR ETWM 060220Z AUTO 22006KT //// // ////// 12/10 Q1020 ///
03:20
L
13 °C 0 m - 240° 240° 8 kt METAR ETWM 060120Z AUTO 24008KT //// // ////// 13/10 Q1019 ///
02:20
L
13 °C 0 m - 220° 220° 7 kt METAR ETWM 060020Z AUTO 22007KT //// // ////// 13/11 Q1018 ///
01:20
L
14 °C 0 m - 230° 230° 7 kt METAR ETWM 052320Z AUTO 23007KT //// // ////// 14/11 Q1017 ///
00:20
L
14 °C 0 m - 240° 240° 8 kt METAR ETWM 052220Z AUTO 24008KT //// // ////// 14/11 Q1016 ///

5 października 2022

Czas Kod Pogoda Temp. Widoczność Sufit Wiatr METAR/SPECI
23:20
L
14 °C 0 m - 260° 260° 12 - 27 kt METAR ETWM 052120Z AUTO 26012G27KT //// // ////// 14/12 Q1015 ///
22:20
L
17 °C 0 m - 220° 220° 11 - 23 kt METAR ETWM 052020Z AUTO 22011G23KT //// // ////// 17/11 Q1013 ///
21:20
L
17 °C 0 m - 210° 210° 9 kt METAR ETWM 051920Z AUTO 21009KT //// // ////// 17/10 Q1013 ///
20:20
L
18 °C 0 m - 220° 220° 11 - 22 kt METAR ETWM 051820Z AUTO 22011G22KT //// // ////// 18/11 Q1013 ///
19:20
L
18 °C 0 m - 230° 230° 8 kt METAR ETWM 051720Z AUTO 23008KT //// // ////// 18/13 Q1012 ///
18:20
L
19 °C 0 m - 200° 200° 5 kt METAR ETWM 051620Z AUTO 20005KT //// // ////// 19/13 Q1011 ///
17:20
L
19 °C 0 m - 210° 210° 7 kt METAR ETWM 051520Z AUTO 21007KT //// // ////// 19/12 Q1011 ///
16:20
V
19 °C 10 km+ 3.500 ft 200° 200° 9 kt METAR ETWM 051420Z 20009KT 9999 FEW027 BKN035 19/12 Q1011 BLU
15:20
M
18 °C 10 km+ 2.900 ft 210° 210° 9 - 19 kt METAR ETWM 051320Z 21009G19KT 9999 BKN029 18/12 Q1012 BLU
14:20
M
18 °C 10 km+ 2.700 ft 220° 220° 11 - 22 kt METAR ETWM 051220Z 22011G22KT 9999 BKN027 18/11 Q1012 BLU
13:20
M
17 °C 10 km+ 2.500 ft 210° 210° 10 - 23 kt METAR ETWM 051120Z 21010G23KT 9999 BKN025 17/11 Q1013 BLU
12:20
M
16 °C 10 km+ 2.500 ft 210° 210° 11 - 24 kt METAR ETWM 051020Z 21011G24KT 9999 BKN025 16/10 Q1013 BLU
11:20
M
16 °C 10 km+ 2.800 ft 200° 200° 11 - 22 kt METAR ETWM 050920Z 20011G22KT 9999 FEW020 BKN028 16/11 Q1014 BLU
10:20
M
15 °C 10 km+ 2.700 ft 200° 200° 8 kt METAR ETWM 050820Z 20008KT 9999 FEW018 BKN027 15/11 Q1014 BLU
09:20
M
14 °C 10 km+ 2.600 ft 200° 200° 7 kt METAR ETWM 050720Z 20007KT 9999 FEW015 BKN026 14/11 Q1014 BLU
08:20
M
14 °C 10 km+ 2.800 ft 190° 190° 7 kt METAR ETWM 050620Z 19007KT 9999 BKN028 14/11 Q1014 BLU
07:20
V
14 °C 10 km+ 3.000 ft 190° 190° 7 kt METAR ETWM 050520Z 19007KT 9999 BKN030 14/11 Q1014 BLU
06:20
V
14 °C 10 km+ 21.000 ft 200° 200° 6 kt METAR ETWM 050420Z 20006KT 9999 SCT027 SCT160 BKN210 14/11 Q1014 BLU+
05:20
L
14 °C 0 m - 190° 190° 4 kt METAR ETWM 050320Z AUTO 19004KT //// // ////// 14/11 Q1015 ///
04:20
L
15 °C 0 m - 190° 190° 5 kt METAR ETWM 050220Z AUTO 19005KT //// // ////// 15/11 Q1015 ///
03:20
L
15 °C 0 m - 200° 200° 5 kt METAR ETWM 050120Z AUTO 20005KT //// // ////// 15/11 Q1016 ///
02:20
L
15 °C 0 m - 200° 200° 5 kt METAR ETWM 050020Z AUTO 20005KT //// // ////// 15/10 Q1016 ///
01:20
L
15 °C 0 m - 200° 200° 4 kt METAR ETWM 042320Z AUTO 20004KT //// // ////// 15/10 Q1016 ///
00:20
L
15 °C 0 m - 200° 200° 5 kt METAR ETWM 042220Z AUTO 20005KT //// // ////// 15/10 Q1017 ///

4 października 2022

Czas Kod Pogoda Temp. Widoczność Sufit Wiatr METAR/SPECI
23:20
L
15 °C 0 m - 200° 200° 5 kt METAR ETWM 042120Z AUTO 20005KT //// // ////// 15/09 Q1017 ///
22:20
L
15 °C 0 m - 190° 190° 6 kt METAR ETWM 042020Z AUTO 19006KT //// // ////// 15/09 Q1017 ///
21:20
L
14 °C 0 m - 180° 180° 5 kt METAR ETWM 041920Z AUTO 18005KT //// // ////// 14/09 Q1017 ///
20:20
L
12 °C 0 m - 180° 180° 3 kt METAR ETWM 041820Z AUTO 18003KT //// // ////// 12/10 Q1017 ///
19:20
L
13 °C 0 m - 180° 180° 3 kt METAR ETWM 041720Z AUTO 18003KT //// // ////// 13/10 Q1017 ///
18:20
L
15 °C 0 m - Var Var 3 kt METAR ETWM 041620Z AUTO VRB03KT //// // ////// 15/09 Q1018 ///
17:20
L
17 °C 0 m - 200° 200° 5 kt METAR ETWM 041520Z AUTO 20005KT //// // ////// 17/09 Q1018 ///
Starsze dane

My i osoby trzecie śledzimy twoje zachowanie w internecie na naszej stronie za pomocą plików cookie. Jeśli kontynuujesz, zakładamy, że zgadzasz się z naszą polityką plików cookie. Dowiedz się więcej